BWU weather

Sydney Bankstown Airport
Sydney, New South Wales, Australia

Public forecast

Using degrees Celsius for public forecast. Weather courtesy of forecast.io.

METAR (pilot weather report)

Closest report is Sydney Kingsford Smith International Airport, 9.5 nm (17.6 km) E. Retrieved 2017/07/27 20:00 UTC (2 minutes ago):

YSSY 272000Z 27007KT 240V300 CAVOK 11/07 Q1017 FM2100 MOD/SEV TURB BLW 5000FT

TAF (pilot weather forecast)

Closest forecast is Sydney Kingsford Smith International Airport, 9.5 nm (17.6 km) E. Retrieved 2017/07/27 18:00 UTC (2 hours ago):

TAF YSSY 271634Z 2718/2824 29008KT 9999 -RA SCT050 BKN080 FM272200 29015KT CAVOK FM280100 25020G30KT CAVOK FM280700 25012KT CAVOK FM281400 29008KT CAVOK